TimeCST,TemperatureF,Dew PointF,Humidity,Sea Level PressureIn,VisibilityMPH,Wind Direction,Wind SpeedMPH,Gust SpeedMPH,PrecipitationIn,Events,Conditions,WindDirDegrees,DateUTC
12:35 AM,23.0,14.0,68,30.06,10.0,East,9.2,-,N/A,,Overcast,90,2013-03-05 06:35:00
12:55 AM,23.0,14.0,68,30.06,10.0,East,10.4,-,N/A,,Overcast,80,2013-03-05 06:55:00
1:15 AM,23.0,14.0,68,30.05,10.0,ENE,10.4,-,N/A,,Overcast,70,2013-03-05 07:15:00
1:35 AM,23.0,14.0,68,30.06,10.0,ENE,8.1,-,N/A,,Overcast,70,2013-03-05 07:35:00
1:55 AM,23.0,14.0,68,30.05,10.0,East,10.4,-,N/A,,Overcast,80,2013-03-05 07:55:00
2:15 AM,22.6,13.8,69,30.04,10.0,ENE,8.1,-,N/A,,Overcast,70,2013-03-05 08:15:00
2:55 AM,22.1,13.1,68,30.03,10.0,ENE,8.1,-,N/A,,Overcast,60,2013-03-05 08:55:00
3:15 AM,22.1,13.1,68,30.01,10.0,ENE,10.4,16.1,N/A,,Overcast,60,2013-03-05 09:15:00
3:35 AM,22.1,13.1,68,30.01,10.0,ENE,10.4,-,N/A,,Overcast,60,2013-03-05 09:35:00
3:55 AM,21.9,13.5,70,30.00,10.0,ENE,11.5,-,N/A,,Overcast,60,2013-03-05 09:55:00
4:15 AM,21.7,13.5,70,29.99,10.0,ENE,13.8,-,N/A,,Overcast,60,2013-03-05 10:15:00
4:55 AM,21.6,14.0,73,29.99,10.0,ENE,10.4,16.1,N/A,,Overcast,60,2013-03-05 10:55:00
5:15 AM,21.6,14.4,74,29.98,10.0,ENE,10.4,-,N/A,,Overcast,60,2013-03-05 11:15:00
5:35 AM,21.7,14.9,75,29.98,10.0,ENE,11.5,-,N/A,,Overcast,70,2013-03-05 11:35:00
5:55 AM,21.9,15.3,76,29.97,10.0,ENE,9.2,-,N/A,,Overcast,60,2013-03-05 11:55:00
6:15 AM,21.9,15.3,76,29.98,10.0,ENE,6.9,-,N/A,,Overcast,70,2013-03-05 12:15:00
6:35 AM,22.1,15.4,76,29.98,10.0,ENE,10.4,-,N/A,,Overcast,70,2013-03-05 12:35:00
7:15 AM,22.5,14.9,73,29.99,10.0,ENE,6.9,-,N/A,,Overcast,70,2013-03-05 13:15:00
7:35 AM,22.5,14.5,72,30.00,10.0,ENE,6.9,-,N/A,,Overcast,70,2013-03-05 13:35:00
7:55 AM,22.8,14.5,71,30.01,10.0,ENE,5.8,-,N/A,,Overcast,60,2013-03-05 13:55:00
8:15 AM,23.0,14.9,71,30.01,10.0,ENE,9.2,-,N/A,,Overcast,60,2013-03-05 14:15:00
8:35 AM,23.4,15.1,71,30.01,10.0,NE,8.1,-,N/A,,Overcast,50,2013-03-05 14:35:00
8:55 AM,23.5,15.4,71,30.01,10.0,NE,9.2,-,N/A,,Overcast,50,2013-03-05 14:55:00
9:15 AM,23.9,15.1,69,30.02,10.0,ENE,6.9,-,N/A,,Overcast,60,2013-03-05 15:15:00
9:35 AM,24.1,14.9,68,30.02,10.0,NE,9.2,-,N/A,,Overcast,50,2013-03-05 15:35:00
9:55 AM,24.4,15.6,69,30.01,10.0,NE,10.4,-,N/A,,Overcast,40,2013-03-05 15:55:00
10:15 AM,24.8,16.0,69,30.01,10.0,NE,16.1,-,N/A,,Overcast,40,2013-03-05 16:15:00
10:35 AM,25.2,16.2,69,30.00,10.0,NE,12.7,-,N/A,,Overcast,50,2013-03-05 16:35:00
10:55 AM,25.3,16.5,69,29.99,10.0,NE,15.0,19.6,N/A,,Overcast,40,2013-03-05 16:55:00
11:15 AM,25.7,16.5,68,29.99,10.0,NE,13.8,19.6,N/A,,Overcast,50,2013-03-05 17:15:00
11:35 AM,26.2,16.7,67,29.98,10.0,ENE,11.5,-,N/A,,Overcast,60,2013-03-05 17:35:00
12:15 PM,26.4,17.1,68,29.97,10.0,NE,10.4,19.6,N/A,,Overcast,50,2013-03-05 18:15:00
12:35 PM,26.4,17.6,69,29.96,10.0,NE,17.3,-,N/A,,Overcast,50,2013-03-05 18:35:00
12:55 PM,26.4,17.6,69,29.96,7.0,NE,15.0,19.6,N/A,Snow,Light Snow,40,2013-03-05 18:55:00
1:15 PM,26.6,17.4,68,29.95,10.0,NE,11.5,-,N/A,Snow,Light Snow,50,2013-03-05 19:15:00
1:35 PM,26.6,16.9,67,29.96,10.0,NNE,16.1,-,N/A,,Overcast,30,2013-03-05 19:35:00
1:55 PM,26.6,16.9,67,29.96,7.0,NE,10.4,-,N/A,,Overcast,50,2013-03-05 19:55:00
2:15 PM,26.2,17.6,70,29.96,7.0,NE,10.4,18.4,N/A,,Overcast,40,2013-03-05 20:15:00
2:35 PM,26.1,17.4,70,29.97,5.0,NE,13.8,24.2,N/A,Snow,Light Snow,40,2013-03-05 20:35:00
2:55 PM,24.8,21.0,86,29.98,1.8,NE,9.2,-,N/A,Snow,Light Snow,40,2013-03-05 20:55:00
3:15 PM,24.6,21.9,89,29.98,1.2,NNE,6.9,-,N/A,Snow,Light Snow,30,2013-03-05 21:15:00
3:35 PM,25.2,22.8,91,29.99,1.2,North,6.9,-,N/A,,Overcast,10,2013-03-05 21:35:00
3:55 PM,25.3,23.0,91,30.00,1.5,North,6.9,-,N/A,,Overcast,360,2013-03-05 21:55:00
4:15 PM,25.5,22.6,89,30.01,2.0,North,8.1,-,N/A,,Overcast,10,2013-03-05 22:15:00
4:35 PM,25.3,22.6,89,30.01,2.0,North,8.1,-,N/A,,Overcast,10,2013-03-05 22:35:00
4:55 PM,25.3,22.8,90,30.02,2.0,North,8.1,-,N/A,,Overcast,10,2013-03-05 22:55:00
5:15 PM,24.8,22.6,91,30.03,2.0,North,8.1,-,N/A,,Overcast,10,2013-03-05 23:15:00
5:35 PM,24.8,21.7,88,30.03,1.8,North,8.1,-,N/A,,Overcast,10,2013-03-05 23:35:00
5:55 PM,24.6,21.7,89,30.04,3.0,North,8.1,-,N/A,,Overcast,10,2013-03-05 23:55:00
6:15 PM,24.4,22.1,91,30.05,7.0,North,4.6,-,N/A,,Overcast,350,2013-03-06 00:15:00
6:35 PM,24.4,21.9,90,30.05,10.0,NNW,4.6,-,N/A,,Overcast,330,2013-03-06 00:35:00
6:55 PM,24.6,21.2,87,30.05,10.0,Calm,Calm,-,N/A,,Overcast,0,2013-03-06 00:55:00
7:15 PM,24.6,21.0,86,30.06,10.0,NW,4.6,-,N/A,,Mostly Cloudy,310,2013-03-06 01:15:00
7:35 PM,24.8,19.9,82,30.06,10.0,North,5.8,-,N/A,,Mostly Cloudy,360,2013-03-06 01:35:00
7:55 PM,25.3,19.2,78,30.06,10.0,North,5.8,-,N/A,,Overcast,350,2013-03-06 01:55:00
8:15 PM,25.3,19.2,78,30.07,10.0,North,4.6,-,N/A,,Overcast,350,2013-03-06 02:15:00
8:35 PM,25.2,19.9,81,30.07,10.0,North,5.8,-,N/A,,Overcast,350,2013-03-06 02:35:00
8:55 PM,25.0,19.9,81,30.07,10.0,North,5.8,-,N/A,,Mostly Cloudy,360,2013-03-06 02:55:00
9:15 PM,24.6,19.4,81,30.08,10.0,North,4.6,-,N/A,,Clear,360,2013-03-06 03:15:00
9:35 PM,24.8,18.0,75,30.09,10.0,North,9.2,-,N/A,,Scattered Clouds,10,2013-03-06 03:35:00
9:55 PM,23.9,18.1,79,30.10,10.0,NNW,3.5,-,N/A,,Scattered Clouds,340,2013-03-06 03:55:00
10:15 PM,22.6,17.8,82,30.10,10.0,NNW,4.6,-,N/A,,Mostly Cloudy,330,2013-03-06 04:15:00
10:35 PM,22.8,18.0,82,30.11,10.0,NNW,4.6,-,N/A,,Overcast,340,2013-03-06 04:35:00
10:55 PM,22.8,17.6,80,30.11,10.0,North,4.6,-,N/A,,Overcast,350,2013-03-06 04:55:00
11:15 PM,22.8,17.8,81,30.12,10.0,NNW,4.6,-,N/A,,Overcast,330,2013-03-06 05:15:00
11:35 PM,23.0,18.1,82,30.13,10.0,North,5.8,-,N/A,,Overcast,350,2013-03-06 05:35:00
11:55 PM,23.4,18.3,81,30.14,10.0,North,5.8,-,N/A,,Overcast,350,2013-03-06 05:55:00